Airfield :
LOGIN :

Register | Disclaimer

   EN    FR    IT 

 










Legend :    VFR   Marginal VFR   IFR   Intensive IFR   Very Intensive IFR
Visi :
Ceiling :
>= 8 km
>= 3000ft
5 to 8 km
1000 to 3000 ft
1500m to 5 km
500 to 1000 ft
800 to 1500m
200 to 500 ft
< 800m
< 200 ft
Symbols :   Thunderstorms  Fog  Heavy snow  Heavy precipitations  Wind > 20 kt
SIGMETs :     Misc.  Thunderstorms  Icing  Turbulence  Mountain Waves  Volcanic Ashes






- Airport Elevation : 125 ft
- IATA code : MGL


EDLN - Mönchengladbach

CURRENT METAR :
  • 131150Z 24009KT 200V280 9999 SCT013 BKN037 08/06 Q1001

EXPIRED METARs :
  • 131120Z 23012KT 9999 SCT013 BKN046 08/05 Q1001
  • 131050Z 23008KT 190V280 9999 SCT013 BKN049 08/05 Q1001
  • 131020Z 23010KT 170V260 9999 SCT013 BKN037 07/05 Q1001
  • 130950Z 23008KT 200V260 9999 FEW013 BKN049 07/05 Q1001
  • 130920Z 22008KT 200V260 9999 FEW012 BKN048 07/05 Q1001

TAF TAF EDLN
Valid from the 13 at 12:00 until the 13 at 21:00 UTC


131100Z 1312/1321 22007KT 9999 SCT015 BKN030
PROB30
TEMPO 1312/1315 SHRA BKN014CB
BECMG 1318/1321 14007KT



MET'MAP, your aeronautical weather chart ! - Copyright ORBIFLY December 2007 - Disclaimer

ORBIFLY MET'MAP TEAM :

Programming & Development : Alexandra Zaïnal
Concept & Development : Baudouin d'Aumeries
Co-Development & Prog : Marc-Olivier Méhu
Technical & hardware support : Manuel Goepfert

Contact : metmap@orbifly.com




SOURCES & CREDITS :

   NOAA